Time;durP1;ratioP1;P1;durP2;ratioP2;P2;SDS_P1;SDS_P2;PMS_P1;PMS_P2;Temp;Humidity;BMP_temperature;BMP_pressure;BME280_temperature;BME280_humidity;BME280_pressure;Samples;Min_cycle;Max_cycle;Signal;HPM_P1;HPM_P2
2023/10/18 00:01:01;;;;;;;12.23;2.60;;;5.10;99.90;;;;;;4981728;28;20437;-70
2023/10/18 00:03:30;;;;;;;7.43;3.13;;;5.10;99.90;;;;;;5002245;28;20475;-69
2023/10/18 00:05:57;;;;;;;4.50;1.50;;;5.10;99.90;;;;;;5000877;28;20103;-69
2023/10/18 00:08:23;;;;;;;4.55;2.63;;;5.10;99.90;;;;;;4998420;28;20041;-69
2023/10/18 00:10:53;;;;;;;4.00;2.15;;;5.10;99.90;;;;;;5003286;28;20481;-69
2023/10/18 00:13:22;;;;;;;5.85;3.40;;;5.10;99.90;;;;;;4999723;28;20489;-69
2023/10/18 00:15:59;;;;;;;4.13;2.35;;;5.10;99.90;;;;;;5000245;28;20129;-70
2023/10/18 00:18:25;;;;;;;8.32;3.50;;;5.10;99.90;;;;;;4994740;28;20175;-70
2023/10/18 00:20:59;;;;;;;5.10;2.97;;;5.10;99.90;;;;;;5005645;28;20518;-70
2023/10/18 00:23:26;;;;;;;;;;;5.10;99.90;;;;;;5003167;28;20056;-70
2023/10/18 00:25:52;;;;;;;6.65;2.58;;;5.10;99.90;;;;;;4999821;28;19956;-70
2023/10/18 00:28:19;;;;;;;10.15;2.95;;;5.10;99.90;;;;;;4979893;28;20041;-69
2023/10/18 00:30:45;;;;;;;8.80;3.38;;;5.10;99.90;;;;;;4998267;28;20049;-70
2023/10/18 00:33:11;;;;;;;6.13;2.80;;;5.20;99.90;;;;;;4999810;28;20045;-70
2023/10/18 00:35:39;;;;;;;6.10;2.67;;;5.10;99.90;;;;;;4999517;28;20105;-69
2023/10/18 00:38:11;;;;;;;7.32;3.25;;;5.00;99.90;;;;;;4988333;28;20398;-69
2023/10/18 00:40:39;;;;;;;5.65;2.60;;;5.00;99.90;;;;;;4998443;28;20168;-69
2023/10/18 00:43:14;;;;;;;4.35;2.42;;;5.00;99.90;;;;;;5000388;28;20041;-69
2023/10/18 00:45:43;;;;;;;7.65;3.83;;;4.90;99.90;;;;;;5000945;28;20049;-69
2023/10/18 00:48:11;;;;;;;4.93;2.65;;;4.90;99.90;;;;;;5016563;28;20052;-70
2023/10/18 00:50:41;;;;;;;6.75;3.85;;;4.90;99.90;;;;;;5011220;28;20080;-69
2023/10/18 00:53:08;;;;;;;4.20;2.40;;;4.90;99.90;;;;;;4986877;28;20033;-69
2023/10/18 00:55:34;;;;;;;6.03;2.55;;;4.90;99.90;;;;;;4995229;28;20046;-69
2023/10/18 00:58:11;;;;;;;8.38;4.28;;;4.80;99.90;;;;;;4994719;28;20065;-69
2023/10/18 01:00:40;;;;;;;3.17;2.47;;;4.80;99.90;;;;;;4980937;28;20062;-70
2023/10/18 01:03:09;;;;;;;5.88;2.45;;;4.80;99.90;;;;;;4997668;28;20081;-70
2023/10/18 01:05:35;;;;;;;6.03;2.90;;;4.90;99.90;;;;;;4971526;28;20448;-70
2023/10/18 01:08:06;;;;;;;9.52;3.20;;;4.90;99.90;;;;;;4996049;28;20042;-69
2023/10/18 01:10:33;;;;;;;7.65;4.88;;;4.80;99.90;;;;;;5019274;28;20474;-69
2023/10/18 01:13:01;;;;;;;8.82;3.20;;;4.70;99.90;;;;;;5006003;28;20053;-69
2023/10/18 01:15:28;;;;;;;10.43;3.63;;;4.90;99.90;;;;;;4998931;28;20046;-70
2023/10/18 01:17:54;;;;;;;5.97;2.65;;;4.80;99.90;;;;;;5002464;28;20037;-69
2023/10/18 01:20:37;;;;;;;5.00;3.15;;;4.80;99.90;;;;;;4988440;28;20045;-70
2023/10/18 01:23:03;;;;;;;5.10;3.53;;;4.80;99.90;;;;;;5008179;28;20041;-70
2023/10/18 01:25:29;;;;;;;6.53;3.10;;;4.80;99.90;;;;;;4986116;28;20422;-70
2023/10/18 01:27:55;;;;;;;7.07;4.05;;;4.80;99.90;;;;;;5000264;28;20065;-70
2023/10/18 01:30:21;;;;;;;6.15;3.45;;;4.90;99.90;;;;;;5001541;28;20049;-70
2023/10/18 01:32:48;;;;;;;6.38;3.72;;;4.80;99.90;;;;;;5002223;28;20501;-70
2023/10/18 01:35:15;;;;;;;10.10;5.13;;;4.90;99.90;;;;;;5014297;28;20046;-70
2023/10/18 01:37:43;;;;;;;6.20;3.38;;;4.80;99.90;;;;;;4996699;28;20132;-70
2023/10/18 01:40:28;;;;;;;5.55;3.70;;;4.70;99.90;;;;;;5003626;28;20048;-70
2023/10/18 01:42:58;;;;;;;7.85;3.95;;;4.80;99.90;;;;;;5002646;28;20038;-70
2023/10/18 01:45:30;;;;;;;8.98;3.70;;;4.80;99.90;;;;;;5001356;28;20038;-70
2023/10/18 01:47:57;;;;;;;8.15;3.38;;;4.90;99.90;;;;;;5005764;28;20077;-70
2023/10/18 01:50:22;;;;;;;5.25;3.53;;;4.70;99.90;;;;;;4993217;28;20069;-70
2023/10/18 01:52:48;;;;;;;5.90;3.75;;;4.80;99.90;;;;;;4998910;28;20033;-70
2023/10/18 01:55:14;;;;;;;6.25;3.40;;;4.80;99.90;;;;;;4997674;28;20038;-70
2023/10/18 01:57:42;;;;;;;5.30;3.45;;;4.80;99.90;;;;;;5004891;28;20077;-70
2023/10/18 02:00:27;;;;;;;7.78;4.05;;;4.80;99.90;;;;;;4972789;28;20054;-70
2023/10/18 02:03:00;;;;;;;8.23;3.55;;;4.80;99.90;;;;;;4998115;28;20039;-70
2023/10/18 02:05:26;;;;;;;9.48;4.30;;;4.80;99.90;;;;;;5002139;28;20042;-70
2023/10/18 02:07:55;;;;;;;8.25;3.75;;;4.70;99.90;;;;;;4983878;28;20374;-70
2023/10/18 02:10:21;;;;;;;7.25;3.95;;;4.80;99.90;;;;;;5003914;28;20037;-70
2023/10/18 02:12:47;;;;;;;9.93;3.95;;;4.80;99.90;;;;;;5015299;28;20050;-70
2023/10/18 02:15:14;;;;;;;33.53;5.55;;;4.80;99.90;;;;;;5016777;28;20046;-70
2023/10/18 02:17:40;;;;;;;6.55;3.97;;;4.80;99.90;;;;;;5020855;28;20045;-70
2023/10/18 02:20:25;;;;;;;13.43;4.18;;;4.90;99.90;;;;;;4977948;28;20395;-70
2023/10/18 02:22:53;;;;;;;6.18;3.85;;;4.80;99.90;;;;;;4999556;28;20048;-70
2023/10/18 02:28:22;;;;;;;11.13;3.22;;;4.80;99.90;;;;;;5003586;28;20052;-70
2023/10/18 02:30:57;;;;;;;12.33;4.57;;;4.90;99.90;;;;;;5008250;28;20041;-70
2023/10/18 02:33:36;;;;;;;12.98;4.13;;;4.90;99.90;;;;;;5003404;28;20768;-70
2023/10/18 02:36:05;;;;;;;5.88;3.70;;;4.90;99.90;;;;;;5021911;28;20053;-70
2023/10/18 02:38:32;;;;;;;6.53;3.80;;;5.00;99.90;;;;;;5017466;28;20044;-70
2023/10/18 02:41:00;;;;;;;5.63;3.05;;;4.90;99.90;;;;;;5001958;28;20041;-71
2023/10/18 02:43:28;;;;;;;7.43;4.07;;;5.00;99.90;;;;;;4999309;28;20460;-70
2023/10/18 02:45:54;;;;;;;8.75;5.07;;;5.00;99.90;;;;;;5003452;28;20033;-70
2023/10/18 02:48:24;;;;;;;4.72;2.90;;;5.00;99.90;;;;;;4988542;28;20409;-70
2023/10/18 02:50:51;;;;;;;7.18;3.72;;;5.00;99.90;;;;;;4997879;28;20079;-70
2023/10/18 02:53:17;;;;;;;7.57;4.72;;;5.00;99.90;;;;;;5009337;28;20219;-71
2023/10/18 02:55:57;;;;;;;6.43;3.50;;;5.00;99.90;;;;;;5003526;28;20045;-70
2023/10/18 02:58:28;;;;;;;7.00;3.45;;;5.00;99.90;;;;;;5003247;28;20050;-70
2023/10/18 03:00:55;;;;;;;4.88;3.55;;;5.00;99.90;;;;;;5014668;28;20120;-70
2023/10/18 03:03:22;;;;;;;5.55;3.63;;;5.00;99.90;;;;;;5018917;28;20041;-70
2023/10/18 03:05:48;;;;;;;8.68;4.55;;;5.10;99.90;;;;;;5004364;28;20052;-70
2023/10/18 03:08:20;;;;;;;8.55;3.83;;;5.00;99.90;;;;;;5001537;28;20041;-70
2023/10/18 03:10:47;;;;;;;7.63;4.57;;;5.10;99.90;;;;;;4998869;28;20049;-70
2023/10/18 03:13:13;;;;;;;9.70;4.60;;;5.10;99.90;;;;;;5004976;28;20128;-70
2023/10/18 03:15:56;;;;;;;6.28;3.70;;;5.10;99.90;;;;;;5003074;28;20124;-70
2023/10/18 03:18:25;;;;;;;7.47;4.78;;;5.20;99.90;;;;;;5012710;28;20038;-70
2023/10/18 03:20:55;;;;;;;10.20;4.65;;;5.20;99.90;;;;;;5002024;28;20046;-70
2023/10/18 03:23:21;;;;;;;6.20;4.22;;;5.20;99.90;;;;;;5002248;28;20454;-70
2023/10/18 03:25:48;;;;;;;6.10;2.78;;;5.20;99.90;;;;;;4997091;28;20054;-70
2023/10/18 03:28:14;;;;;;;10.10;4.72;;;5.30;99.90;;;;;;5015146;28;20053;-70
2023/10/18 03:30:45;;;;;;;7.75;4.93;;;5.20;99.90;;;;;;4998571;28;20049;-70
2023/10/18 03:33:14;;;;;;;4.97;3.30;;;5.30;99.90;;;;;;5001871;28;20120;-70
2023/10/18 03:35:43;;;;;;;6.47;4.13;;;5.20;99.90;;;;;;4995028;28;20391;-70
2023/10/18 03:38:17;;;;;;;6.93;4.60;;;5.20;99.90;;;;;;4986895;28;20530;-70
2023/10/18 03:40:56;;;;;;;7.57;3.95;;;5.30;99.90;;;;;;5001451;28;20378;-70
2023/10/18 03:43:32;;;;;;;7.65;4.43;;;5.20;99.90;;;;;;5001746;28;20069;-70
2023/10/18 03:46:13;;;;;;;6.57;4.05;;;5.20;99.90;;;;;;5000687;28;20083;-70
2023/10/18 03:48:45;;;;;;;6.78;4.15;;;5.30;99.90;;;;;;4995172;28;20049;-71
2023/10/18 03:51:18;;;;;;;6.13;4.00;;;5.30;99.90;;;;;;4995700;28;20421;-70
2023/10/18 03:53:45;;;;;;;8.18;4.05;;;5.40;99.90;;;;;;5001498;28;20063;-70
2023/10/18 03:56:13;;;;;;;7.25;4.53;;;5.40;99.90;;;;;;5003326;28;20083;-70
2023/10/18 03:58:48;;;;;;;5.72;3.53;;;5.40;99.90;;;;;;5012160;28;20060;-71
2023/10/18 04:01:19;;;;;;;10.82;4.20;;;5.40;99.90;;;;;;5019787;28;20092;-70
2023/10/18 04:03:45;;;;;;;8.60;3.58;;;5.40;99.90;;;;;;5005176;28;20129;-71
2023/10/18 04:06:21;;;;;;;8.43;4.65;;;5.40;99.90;;;;;;5000380;28;20042;-70
2023/10/18 04:08:47;;;;;;;6.07;2.80;;;5.40;99.90;;;;;;4998862;28;20045;-70
2023/10/18 04:11:13;;;;;;;6.05;3.55;;;5.40;99.90;;;;;;4989092;28;20038;-71
2023/10/18 04:13:39;;;;;;;9.27;3.78;;;5.40;99.90;;;;;;4988002;28;20085;-71
2023/10/18 04:16:11;;;;;;;7.10;4.18;;;5.40;99.90;;;;;;5005741;28;20120;-71
2023/10/18 04:18:37;;;;;;;7.53;4.05;;;5.40;99.90;;;;;;5003926;28;20041;-71
2023/10/18 04:21:12;;;;;;;7.65;3.05;;;5.30;99.90;;;;;;5001504;28;20371;-71
2023/10/18 04:23:38;;;;;;;6.40;3.85;;;5.30;99.90;;;;;;5001659;28;20029;-71
2023/10/18 04:26:05;;;;;;;7.40;4.65;;;5.30;99.90;;;;;;4985508;28;20048;-70
2023/10/18 04:28:37;;;;;;;5.85;3.85;;;5.30;99.90;;;;;;4996318;28;20052;-71
2023/10/18 04:31:04;;;;;;;7.95;4.38;;;5.40;99.90;;;;;;5002035;28;20045;-71
2023/10/18 04:33:49;;;;;;;6.55;4.15;;;5.30;99.90;;;;;;4999641;28;20046;-71
2023/10/18 04:36:15;;;;;;;8.95;4.20;;;5.30;99.90;;;;;;4985350;28;20395;-71
2023/10/18 04:38:45;;;;;;;8.38;4.00;;;5.30;99.90;;;;;;4987937;28;20041;-72
2023/10/18 04:43:49;;;;;;;6.53;4.45;;;5.30;99.90;;;;;;5003332;28;20053;-72
2023/10/18 04:46:15;;;;;;;7.53;4.20;;;5.30;99.90;;;;;;4992759;28;20046;-72
2023/10/18 04:51:26;;;;;;;8.68;4.32;;;5.30;99.90;;;;;;5021414;28;20046;-72
2023/10/18 04:54:08;;;;;;;7.25;3.67;;;5.30;99.90;;;;;;4988483;28;20578;-72
2023/10/18 04:56:37;;;;;;;7.78;4.10;;;5.30;99.90;;;;;;5001899;28;20058;-72
2023/10/18 05:04:34;;;;;;;5.15;3.83;;;5.20;99.90;;;;;;5017570;28;20522;-72
2023/10/18 05:14:50;;;;;;;6.90;3.63;;;5.20;99.90;;;;;;5000880;28;20076;-72
2023/10/18 05:17:23;;;;;;;4.60;2.55;;;5.10;99.90;;;;;;5002729;28;20038;-72
2023/10/18 05:19:50;;;;;;;8.60;4.50;;;5.20;99.90;;;;;;5004571;28;20510;-72
2023/10/18 05:22:25;;;;;;;7.07;3.15;;;5.10;99.90;;;;;;5003941;28;20044;-71
2023/10/18 05:24:57;;;;;;;5.93;3.95;;;5.10;99.90;;;;;;4999356;28;20390;-72
2023/10/18 05:27:27;;;;;;;8.10;3.58;;;5.00;99.90;;;;;;5011727;28;20046;-72
2023/10/18 05:30:14;;;;;;;6.95;4.10;;;5.00;99.90;;;;;;4999100;28;20346;-72
2023/10/18 05:32:49;;;;;;;4.20;3.15;;;5.00;99.90;;;;;;4999717;28;20120;-71
2023/10/18 05:35:21;;;;;;;7.75;4.32;;;5.00;99.90;;;;;;5019872;28;20045;-71
2023/10/18 05:37:58;;;;;;;6.38;3.38;;;4.90;99.90;;;;;;5017728;28;20045;-71
2023/10/18 05:43:03;;;;;;;3.05;2.58;;;4.80;99.90;;;;;;5014175;28;20502;-72
2023/10/18 05:45:33;;;;;;;5.82;4.28;;;4.90;99.90;;;;;;5000457;28;20125;-71
2023/10/18 05:48:03;;;;;;;8.00;3.40;;;4.80;99.90;;;;;;5022629;28;20135;-71
2023/10/18 05:50:35;;;;;;;9.65;5.18;;;4.90;99.90;;;;;;4989388;28;20509;-71
2023/10/18 05:53:10;;;;;;;7.18;3.75;;;4.80;99.90;;;;;;4997811;28;20038;-71
2023/10/18 05:55:38;;;;;;;3.80;2.58;;;4.80;99.90;;;;;;5005281;28;20521;-71
2023/10/18 05:58:07;;;;;;;7.60;4.22;;;4.80;99.90;;;;;;5001904;28;20470;-71
2023/10/18 06:00:33;;;;;;;5.43;3.25;;;4.70;99.90;;;;;;5014612;28;20048;-71
2023/10/18 06:02:59;;;;;;;7.38;4.53;;;4.80;99.90;;;;;;4988409;28;20041;-72
2023/10/18 06:05:30;;;;;;;6.25;3.92;;;4.80;99.90;;;;;;5001402;28;20126;-71
2023/10/18 06:07:57;;;;;;;6.22;3.45;;;4.80;99.90;;;;;;5001371;28;20037;-71
2023/10/18 06:10:23;;;;;;;7.65;4.30;;;4.80;99.90;;;;;;5003642;28;20441;-72
2023/10/18 06:12:49;;;;;;;7.70;4.78;;;4.80;99.90;;;;;;4995863;28;20045;-72
2023/10/18 06:15:34;;;;;;;5.82;3.22;;;4.80;99.90;;;;;;4999172;28;20038;-72
2023/10/18 06:18:05;;;;;;;6.28;3.30;;;4.90;99.90;;;;;;5003488;28;20045;-72
2023/10/18 06:20:37;;;;;;;4.32;2.75;;;4.90;99.90;;;;;;5021336;28;20033;-72
2023/10/18 06:23:08;;;;;;;3.78;2.28;;;4.90;99.90;;;;;;5002714;28;20033;-72
2023/10/18 06:25:44;;;;;;;14.60;3.72;;;5.00;99.90;;;;;;5019089;28;20659;-72
2023/10/18 06:28:10;;;;;;;5.50;3.97;;;5.00;99.90;;;;;;5000329;28;20497;-72
2023/10/18 06:30:39;;;;;;;7.15;3.75;;;5.00;99.90;;;;;;5015153;28;20311;-71
2023/10/18 06:33:12;;;;;;;3.63;2.60;;;5.10;99.90;;;;;;5022697;28;20047;-71
2023/10/18 06:35:45;;;;;;;6.03;4.05;;;5.10;99.90;;;;;;5002482;28;20564;-72
2023/10/18 06:38:17;;;;;;;10.00;4.18;;;5.10;99.90;;;;;;4981988;28;20053;-72
2023/10/18 06:40:49;;;;;;;9.00;4.63;;;5.10;99.90;;;;;;5005180;28;20115;-71
2023/10/18 06:43:15;;;;;;;6.15;3.72;;;5.20;99.90;;;;;;5004954;28;20065;-72
2023/10/18 06:45:41;;;;;;;4.15;2.78;;;5.20;99.90;;;;;;5003676;28;20076;-72
2023/10/18 06:48:08;;;;;;;4.18;2.92;;;5.20;99.90;;;;;;5003894;28;20146;-72
2023/10/18 06:50:35;;;;;;;5.80;3.17;;;5.20;99.90;;;;;;5012369;28;20034;-72
2023/10/18 06:53:06;;;;;;;5.38;3.50;;;5.30;99.90;;;;;;5000804;28;20038;-72
2023/10/18 06:58:15;;;;;;;9.23;5.40;;;5.40;99.90;;;;;;4998920;28;20054;-72
2023/10/18 07:00:46;;;;;;;6.55;3.63;;;5.40;99.90;;;;;;4980158;28;20042;-72
2023/10/18 07:03:16;;;;;;;7.25;3.58;;;5.40;99.90;;;;;;4982108;28;20031;-72
2023/10/18 07:05:49;;;;;;;8.80;3.10;;;5.50;99.90;;;;;;5000852;28;20466;-72
2023/10/18 07:08:34;;;;;;;7.10;3.17;;;5.60;99.90;;;;;;4978761;28;20046;-71
2023/10/18 07:11:08;;;;;;;5.15;2.45;;;5.60;99.90;;;;;;4966560;28;20045;-72
2023/10/18 07:13:34;;;;;;;5.68;4.32;;;5.70;99.90;;;;;;4988430;28;20046;-72
2023/10/18 07:16:15;;;;;;;6.07;3.65;;;5.70;99.90;;;;;;4984324;28;20053;-71
2023/10/18 07:19:03;;;;;;;4.82;3.03;;;5.70;99.90;;;;;;4993541;28;20556;-72
2023/10/18 07:21:32;;;;;;;5.55;3.80;;;5.80;99.90;;;;;;4984534;28;20074;-72
2023/10/18 07:24:02;;;;;;;3.70;2.60;;;5.80;99.90;;;;;;4981746;28;20042;-71
2023/10/18 07:26:29;;;;;;;5.82;3.42;;;5.90;99.90;;;;;;4978137;28;20050;-71
2023/10/18 07:28:55;;;;;;;5.28;3.53;;;5.90;99.90;;;;;;4995513;28;20054;-71
2023/10/18 07:31:25;;;;;;;6.22;3.25;;;6.00;99.90;;;;;;4984485;28;20049;-72
2023/10/18 07:33:51;;;;;;;4.97;3.03;;;6.00;99.90;;;;;;4982421;28;20066;-72
2023/10/18 07:36:18;;;;;;;5.85;3.17;;;6.10;99.90;;;;;;4976441;28;20406;-71
2023/10/18 07:38:55;;;;;;;5.72;3.33;;;6.10;99.90;;;;;;4998507;28;20050;-71
2023/10/18 07:41:26;;;;;;;6.30;2.95;;;6.20;99.90;;;;;;4996238;28;20041;-72
2023/10/18 07:43:57;;;;;;;5.60;3.97;;;6.20;99.90;;;;;;4981562;28;20038;-72
2023/10/18 07:46:25;;;;;;;4.22;3.45;;;6.30;99.90;;;;;;4977126;28;20042;-71
2023/10/18 07:48:53;;;;;;;7.00;2.05;;;6.30;99.90;;;;;;4965019;28;20491;-72
2023/10/18 07:51:31;;;;;;;6.38;3.15;;;6.30;99.90;;;;;;4982701;28;20049;-72
2023/10/18 07:53:57;;;;;;;7.05;3.95;;;6.40;99.90;;;;;;4979716;28;20260;-72
2023/10/18 07:56:31;;;;;;;6.05;3.97;;;6.40;99.90;;;;;;4981722;28;20129;-73
2023/10/18 08:00:21;;;;;;;4.78;3.17;;;6.50;99.90;;;;;;4998731;28;20045;-72
2023/10/18 08:02:07;;;;;;;5.95;3.72;;;6.50;99.90;;;;;;4992375;28;20057;-72
2023/10/18 08:04:37;;;;;;;4.97;3.35;;;6.60;99.90;;;;;;4999575;28;20052;-71
2023/10/18 08:07:10;;;;;;;5.10;2.90;;;6.60;99.90;;;;;;5004283;28;20050;-71
2023/10/18 08:09:39;;;;;;;5.07;2.85;;;6.70;99.90;;;;;;4996585;28;20214;-71
2023/10/18 08:12:06;;;;;;;4.95;3.00;;;6.80;99.90;;;;;;4999554;28;20099;-71
2023/10/18 08:14:35;;;;;;;4.93;3.10;;;6.80;99.90;;;;;;4996818;28;20152;-71
2023/10/18 08:17:29;;;;;;;5.03;2.60;;;6.80;99.90;;;;;;5010860;28;20046;-71
2023/10/18 08:22:43;;;;;;;5.70;2.47;;;7.00;99.90;;;;;;4991768;28;20136;-71
2023/10/18 08:25:21;;;;;;;4.13;2.40;;;7.00;99.90;;;;;;5002572;28;20050;-71
2023/10/18 08:27:50;;;;;;;4.70;2.95;;;7.10;99.90;;;;;;5001317;28;20073;-71
2023/10/18 08:30:24;;;;;;;6.68;2.60;;;7.20;99.90;;;;;;4999147;28;20073;-71
2023/10/18 08:32:51;;;;;;;5.80;3.22;;;7.30;99.90;;;;;;5001713;28;20142;-71
2023/10/18 08:35:19;;;;;;;10.05;4.03;;;7.40;99.90;;;;;;5009746;28;20045;-71
2023/10/18 08:37:45;;;;;;;4.75;2.40;;;7.50;99.90;;;;;;5022489;28;20079;-71
2023/10/18 08:41:05;;;;;;;3.60;2.30;;;7.60;99.90;;;;;;4991519;28;20143;-71
2023/10/18 08:43:06;;;;;;;6.00;3.05;;;7.70;99.90;;;;;;4996372;28;20169;-71
2023/10/18 08:45:53;;;;;;;3.92;2.50;;;7.90;99.90;;;;;;4988682;28;20105;-72
2023/10/18 08:48:28;;;;;;;2.30;1.73;;;8.00;99.90;;;;;;5006015;28;20053;-70
2023/10/18 08:50:59;;;;;;;4.00;2.17;;;8.10;99.90;;;;;;5000851;28;20045;-71
2023/10/18 08:53:26;;;;;;;5.57;3.03;;;8.40;99.90;;;;;;5003954;28;20073;-71
2023/10/18 08:55:57;;;;;;;10.15;2.45;;;8.40;99.90;;;;;;5003284;28;20037;-71
2023/10/18 08:58:27;;;;;;;2.58;1.95;;;8.50;99.90;;;;;;5005019;28;20076;-71
2023/10/18 09:03:27;;;;;;;3.42;2.17;;;8.70;99.90;;;;;;4994310;28;20037;-71
2023/10/18 09:06:07;;;;;;;5.43;2.55;;;8.70;99.90;;;;;;5001778;28;20091;-72
2023/10/18 09:08:41;;;;;;;4.13;2.22;;;8.80;99.90;;;;;;5005139;28;20041;-72
2023/10/18 09:11:23;;;;;;;3.35;1.90;;;8.70;99.90;;;;;;5001638;28;20148;-71
2023/10/18 09:14:08;;;;;;;4.18;2.28;;;8.80;99.90;;;;;;5000998;28;20512;-72
2023/10/18 09:16:38;;;;;;;;;;;8.80;99.90;;;;;;5003642;28;20038;-71
2023/10/18 09:19:08;;;;;;;2.58;2.05;;;8.80;99.90;;;;;;4999984;28;19917;-72
2023/10/18 09:21:56;;;;;;;3.78;2.35;;;8.80;99.90;;;;;;4999141;28;20592;-71
2023/10/18 09:24:30;;;;;;;3.00;1.95;;;8.90;99.90;;;;;;4973374;28;20045;-72
2023/10/18 09:27:00;;;;;;;3.67;2.47;;;8.90;99.90;;;;;;4987993;28;20057;-71
2023/10/18 09:29:27;;;;;;;4.22;2.35;;;8.90;99.90;;;;;;4998299;28;20049;-72
2023/10/18 09:34:38;;;;;;;7.78;2.95;;;9.10;99.90;;;;;;4997541;28;20060;-71
2023/10/18 09:37:10;;;;;;;3.50;2.35;;;9.30;99.90;;;;;;5008669;28;20037;-71
2023/10/18 09:39:37;;;;;;;4.18;2.03;;;9.50;99.90;;;;;;4995542;28;20041;-71
2023/10/18 09:42:12;;;;;;;5.95;2.75;;;9.80;99.90;;;;;;4985023;28;20125;-71
2023/10/18 09:44:41;;;;;;;3.13;1.73;;;9.90;99.90;;;;;;4996214;28;20406;-72
2023/10/18 09:47:08;;;;;;;3.85;2.30;;;9.90;99.90;;;;;;5008948;28;20317;-71
2023/10/18 09:49:34;;;;;;;3.25;2.20;;;10.10;99.90;;;;;;5014508;28;20049;-72
2023/10/18 09:52:03;;;;;;;4.45;2.30;;;10.50;99.90;;;;;;4977816;28;20186;-72
2023/10/18 09:54:34;;;;;;;3.67;2.20;;;10.70;99.90;;;;;;4988534;28;20065;-72
2023/10/18 09:57:02;;;;;;;3.75;2.10;;;10.80;99.90;;;;;;5003865;28;20046;-71
2023/10/18 09:59:32;;;;;;;5.47;2.03;;;10.70;99.90;;;;;;4998481;28;20084;-71
2023/10/18 10:02:07;;;;;;;2.92;2.30;;;10.60;99.90;;;;;;5004003;28;20149;-72
2023/10/18 10:04:35;;;;;;;6.30;1.90;;;10.60;99.90;;;;;;5006786;28;20042;-71
2023/10/18 10:09:51;;;;;;;5.75;2.30;;;10.50;99.90;;;;;;5003093;28;20128;-72
2023/10/18 10:12:18;;;;;;;3.75;2.20;;;10.60;99.90;;;;;;5021942;28;20391;-72
2023/10/18 10:14:44;;;;;;;4.32;2.00;;;10.60;99.90;;;;;;5006829;28;20038;-72
2023/10/18 10:17:17;;;;;;;5.13;1.88;;;10.60;99.90;;;;;;5008912;28;20065;-72
2023/10/18 10:19:54;;;;;;;3.45;2.40;;;10.70;99.90;;;;;;4990356;28;20125;-71
2023/10/18 10:22:24;;;;;;;2.55;1.60;;;10.70;99.90;;;;;;5019543;28;20454;-70
2023/10/18 10:25:04;;;;;;;3.85;2.10;;;10.60;99.90;;;;;;5004702;28;20124;-72
2023/10/18 10:30:27;;;;;;;3.67;2.78;;;10.70;99.90;;;;;;5013045;28;20038;-71
2023/10/18 10:32:59;;;;;;;2.47;1.58;;;10.80;99.90;;;;;;5003087;28;20084;-72
2023/10/18 10:35:25;;;;;;;2.80;2.00;;;10.90;99.90;;;;;;5008987;28;20049;-72
2023/10/18 10:37:52;;;;;;;1.98;1.42;;;11.10;99.90;;;;;;4984689;28;20033;-72
2023/10/18 10:43:03;;;;;;;3.78;2.22;;;11.30;99.90;;;;;;5004282;28;20046;-72
2023/10/18 10:46:18;;;;;;;2.83;1.75;;;11.30;99.90;;;;;;4988338;28;20042;-72
2023/10/18 10:48:32;;;;;;;1.75;1.23;;;11.30;99.90;;;;;;4998774;28;21099;-72
2023/10/18 10:51:06;;;;;;;2.67;1.83;;;11.30;99.90;;;;;;5007694;28;20038;-71
2023/10/18 10:53:45;;;;;;;1.80;1.57;;;11.20;99.90;;;;;;4994675;28;20371;-72
2023/10/18 10:56:31;;;;;;;4.63;2.42;;;11.20;99.90;;;;;;5003356;28;20488;-71
2023/10/18 11:01:39;;;;;;;4.18;2.17;;;11.20;99.90;;;;;;5022703;28;20046;-71
2023/10/18 11:04:27;;;;;;;3.00;1.63;;;11.20;99.90;;;;;;5007124;28;20493;-72
2023/10/18 11:06:57;;;;;;;2.13;1.08;;;11.30;99.90;;;;;;5026173;28;20045;-72
2023/10/18 11:09:38;;;;;;;4.30;2.30;;;11.30;99.90;;;;;;4999808;28;20033;-71
2023/10/18 11:12:08;;;;;;;2.58;1.88;;;11.50;99.90;;;;;;5004541;28;20498;-72
2023/10/18 11:14:37;;;;;;;1.95;1.27;;;11.60;99.90;;;;;;5000228;28;20069;-72
2023/10/18 11:17:25;;;;;;;3.63;1.70;;;11.70;99.90;;;;;;4992354;28;21442;-73
2023/10/18 11:19:54;;;;;;;2.38;1.45;;;11.80;99.90;;;;;;4999380;28;20071;-72
2023/10/18 11:22:22;;;;;;;7.25;1.65;;;12.10;99.90;;;;;;4998515;28;20442;-72
2023/10/18 11:24:50;;;;;;;2.70;1.40;;;12.30;99.90;;;;;;4983864;28;20521;-72
2023/10/18 11:27:34;;;;;;;1.75;1.20;;;12.40;99.90;;;;;;4999447;28;20399;-72
2023/10/18 11:30:15;;;;;;;2.95;1.30;;;12.30;99.90;;;;;;5015029;28;20576;-71
2023/10/18 11:32:48;;;;;;;4.72;1.95;;;12.20;99.90;;;;;;5008331;28;20037;-70
2023/10/18 11:35:25;;;;;;;2.47;1.52;;;12.20;99.90;;;;;;5020373;28;20041;-72
2023/10/18 11:37:52;;;;;;;3.75;2.03;;;12.10;99.90;;;;;;5002932;28;20046;-71
2023/10/18 11:40:29;;;;;;;1.67;1.08;;;12.20;99.90;;;;;;5001592;28;20041;-70
2023/10/18 11:43:05;;;;;;;1.77;0.98;;;12.00;99.90;;;;;;5010333;28;20085;-72
2023/10/18 11:45:40;;;;;;;2.95;1.42;;;12.00;99.90;;;;;;4995000;28;20406;-71
2023/10/18 11:48:14;;;;;;;2.85;1.65;;;11.90;99.90;;;;;;4985038;28;20044;-72
2023/10/18 11:50:47;;;;;;;3.30;1.17;;;11.70;99.90;;;;;;5013394;28;20124;-72
2023/10/18 11:53:22;;;;;;;1.98;1.38;;;11.70;99.90;;;;;;5002664;28;20065;-72
2023/10/18 11:56:20;;;;;;;2.25;1.40;;;11.60;99.90;;;;;;4984348;28;20046;-72
2023/10/18 11:59:00;;;;;;;3.53;2.00;;;11.60;99.90;;;;;;4997261;28;20443;-71
2023/10/18 12:01:33;;;;;;;2.00;1.02;;;11.60;99.90;;;;;;4999705;28;20049;-71
2023/10/18 12:03:59;;;;;;;2.10;1.50;;;11.50;99.90;;;;;;4996808;28;20597;-71
2023/10/18 12:06:25;;;;;;;2.83;1.27;;;11.60;99.90;;;;;;5020402;28;20040;-71
2023/10/18 12:09:42;;;;;;;2.20;1.30;;;11.60;99.90;;;;;;5005875;28;20052;-71
2023/10/18 12:11:43;;;;;;;2.42;1.23;;;11.60;99.90;;;;;;4995534;28;20054;-72
2023/10/18 12:14:09;;;;;;;2.85;1.42;;;11.60;99.90;;;;;;5002020;28;20413;-72
2023/10/18 12:16:35;;;;;;;2.70;1.35;;;11.50;99.90;;;;;;5005745;28;20064;-72
2023/10/18 12:19:00;;;;;;;4.25;1.23;;;11.60;99.90;;;;;;5004278;28;20127;-72
2023/10/18 12:21:29;;;;;;;1.70;1.13;;;11.60;99.90;;;;;;4994502;28;20482;-72
2023/10/18 12:23:56;;;;;;;2.00;1.10;;;11.60;99.90;;;;;;5001767;28;20120;-72
2023/10/18 12:26:24;;;;;;;2.30;1.27;;;11.50;99.90;;;;;;5009488;28;20275;-72
2023/10/18 12:28:55;;;;;;;1.42;1.08;;;11.50;99.90;;;;;;4997181;28;20038;-72
2023/10/18 12:31:29;;;;;;;3.40;1.23;;;11.60;99.90;;;;;;5004747;28;20042;-72
2023/10/18 12:33:59;;;;;;;3.28;1.40;;;11.60;99.90;;;;;;5000861;28;20044;-72
2023/10/18 12:36:49;;;;;;;3.38;1.80;;;11.60;99.90;;;;;;5004872;28;20453;-71
2023/10/18 12:39:20;;;;;;;1.95;0.85;;;11.60;99.90;;;;;;5005445;28;20049;-71
2023/10/18 12:41:46;;;;;;;;;;;11.60;99.90;;;;;;5003944;28;20064;-71
2023/10/18 12:44:17;;;;;;;3.22;1.05;;;11.60;99.90;;;;;;5020203;28;19922;-71
2023/10/18 12:46:43;;;;;;;3.67;1.88;;;11.60;99.90;;;;;;5005979;28;20040;-71
2023/10/18 12:49:13;;;;;;;1.77;1.17;;;11.60;99.90;;;;;;5005815;28;20045;-71
2023/10/18 12:51:42;;;;;;;1.98;1.38;;;11.60;99.90;;;;;;5019144;28;20075;-72
2023/10/18 12:54:19;;;;;;;2.75;1.35;;;11.60;99.90;;;;;;5007238;28;20104;-71
2023/10/18 12:56:57;;;;;;;2.00;1.80;;;11.60;99.90;;;;;;5006303;28;20081;-72
2023/10/18 12:59:23;;;;;;;4.25;1.40;;;11.60;99.90;;;;;;5010786;28;20258;-72
2023/10/18 13:01:50;;;;;;;2.58;1.75;;;11.60;99.90;;;;;;4998374;28;20049;-73
2023/10/18 13:04:18;;;;;;;0.95;0.85;;;11.60;99.90;;;;;;4999241;28;20596;-72
2023/10/18 13:06:46;;;;;;;2.25;1.17;;;11.60;99.90;;;;;;4996511;28;20034;-72
2023/10/18 13:09:18;;;;;;;2.20;1.45;;;11.70;99.90;;;;;;4990393;28;20045;-72
2023/10/18 13:14:31;;;;;;;2.00;1.50;;;11.80;99.90;;;;;;5006428;28;20054;-72
2023/10/18 13:16:58;;;;;;;4.15;1.95;;;11.80;99.90;;;;;;5013773;28;20335;-71
2023/10/18 13:19:27;;;;;;;2.85;1.33;;;11.80;99.90;;;;;;5013042;28;20048;-72
2023/10/18 13:21:53;;;;;;;2.08;1.40;;;11.80;99.90;;;;;;5029307;28;20052;-72
2023/10/18 13:26:45;;;;;;;7.53;2.55;;;11.70;99.90;;;;;;5024629;28;20053;-72
2023/10/18 13:31:47;;;;;;;3.05;1.77;;;11.50;99.90;;;;;;5027369;28;20053;-71
2023/10/18 13:34:18;;;;;;;3.70;1.92;;;11.50;99.90;;;;;;5007683;28;20057;-72
2023/10/18 13:36:45;;;;;;;2.30;1.50;;;11.40;99.90;;;;;;5009974;28;20042;-72
2023/10/18 13:39:16;;;;;;;2.03;1.27;;;11.40;99.90;;;;;;5019790;28;20146;-71
2023/10/18 13:41:46;;;;;;;2.22;1.42;;;11.30;99.90;;;;;;5003930;28;20049;-71
2023/10/18 13:44:25;;;;;;;2.67;1.67;;;11.30;99.90;;;;;;5007622;28;20033;-73
2023/10/18 13:46:51;;;;;;;3.20;1.98;;;11.20;99.90;;;;;;5007972;28;20052;-73
2023/10/18 13:49:18;;;;;;;3.65;1.58;;;11.10;99.90;;;;;;4999783;28;20048;-71
2023/10/18 13:51:45;;;;;;;2.67;1.65;;;11.10;99.90;;;;;;5009847;28;20084;-72
2023/10/18 13:54:15;;;;;;;3.03;1.65;;;11.10;99.90;;;;;;4993015;28;20116;-72
2023/10/18 13:56:41;;;;;;;3.08;1.70;;;11.00;99.90;;;;;;4992973;28;20038;-72
2023/10/18 13:59:07;;;;;;;5.78;1.67;;;11.10;99.90;;;;;;5015566;28;20060;-72
2023/10/18 14:01:34;;;;;;;4.00;2.00;;;11.00;99.90;;;;;;5005292;28;20049;-72
2023/10/18 14:04:01;;;;;;;4.35;1.95;;;11.00;99.90;;;;;;5007107;28;20501;-72
2023/10/18 14:06:29;;;;;;;3.83;1.90;;;11.00;99.90;;;;;;5004117;28;20041;-71
2023/10/18 14:08:56;;;;;;;3.50;1.67;;;11.10;99.90;;;;;;4989107;28;20439;-72